Time;durP1;ratioP1;P1;durP2;ratioP2;P2;SDS_P1;SDS_P2;PMS_P1;PMS_P2;Temp;Humidity;BMP_temperature;BMP_pressure;BME280_temperature;BME280_humidity;BME280_pressure;Samples;Min_cycle;Max_cycle;Signal;HPM_P1;HPM_P2
2022/07/01 00:00:32;;;;;;;7.88;3.33;;;;;;;22.46;63.86;99947.13;5086122;28;20170;-29
2022/07/01 00:02:58;;;;;;;6.43;3.35;;;;;;;22.07;63.78;99937.47;5086097;28;20103;-28
2022/07/01 00:05:23;;;;;;;6.47;3.25;;;;;;;21.95;64.77;99939.06;5085643;28;20600;-28
2022/07/01 00:07:49;;;;;;;5.47;3.03;;;;;;;21.93;65.82;99957.56;5085978;28;20024;-33
2022/07/01 00:10:15;;;;;;;5.90;3.10;;;;;;;21.80;65.20;99961.81;5085983;28;20397;-33
2022/07/01 00:12:41;;;;;;;5.40;3.20;;;;;;;21.65;65.26;99939.25;5067769;28;20123;-32
2022/07/01 00:15:07;;;;;;;10.82;3.65;;;;;;;21.45;66.64;99950.44;5085573;28;20024;-29
2022/07/01 00:17:33;;;;;;;6.90;3.40;;;;;;;21.32;68.07;99951.16;5085787;28;20060;-32
2022/07/01 00:19:59;;;;;;;11.73;4.20;;;;;;;21.20;67.99;99938.81;5067333;28;20523;-30
2022/07/01 00:22:27;;;;;;;5.90;3.45;;;;;;;21.37;68.49;99940.22;5085846;28;20081;-30
2022/07/01 00:24:53;;;;;;;6.60;3.13;;;;;;;21.54;67.79;99945.97;5067452;28;20059;-30
2022/07/01 00:27:18;;;;;;;10.85;3.47;;;;;;;21.30;68.84;99939.78;5050630;28;20063;-34
2022/07/01 00:29:44;;;;;;;5.72;3.70;;;;;;;21.13;69.10;99951.16;5085977;28;20160;-28
2022/07/01 00:32:09;;;;;;;8.50;3.40;;;;;;;20.87;69.42;99937.91;5085678;28;20020;-31
2022/07/01 00:34:35;;;;;;;7.65;3.90;;;;;;;20.71;70.05;99933.78;5085923;28;20109;-29
2022/07/01 00:37:00;;;;;;;7.60;4.00;;;;;;;20.24;71.53;99914.50;5067476;28;20051;-32
2022/07/01 00:39:26;;;;;;;7.95;3.95;;;;;;;20.56;71.19;99942.88;5067015;28;20027;-33
2022/07/01 00:41:51;;;;;;;7.07;4.05;;;;;;;20.52;70.60;99925.59;5085815;28;20052;-31
2022/07/01 00:44:18;;;;;;;6.13;3.72;;;;;;;20.71;70.68;99944.63;5067690;28;20028;-32
2022/07/01 00:46:44;;;;;;;6.35;3.70;;;;;;;20.83;71.01;99937.69;5085970;28;20119;-31
2022/07/01 00:49:10;;;;;;;8.32;3.70;;;;;;;20.71;70.38;99923.75;5070756;28;20031;-28
2022/07/01 00:51:36;;;;;;;6.95;3.78;;;;;;;20.84;69.88;99933.88;5089204;28;20036;-33
2022/07/01 00:54:01;;;;;;;6.85;3.60;;;;;;;20.78;69.09;99945.06;5089233;28;20372;-31
2022/07/01 00:56:27;;;;;;;6.13;3.92;;;;;;;20.54;68.86;99928.81;5089458;28;20688;-33
2022/07/01 00:58:54;;;;;;;9.85;4.30;;;;;;;20.54;69.31;99934.22;5070988;28;20028;-28
2022/07/01 01:01:20;;;;;;;7.43;3.47;;;;;;;20.57;68.78;99918.19;5088956;28;20036;-29
2022/07/01 01:03:46;;;;;;;7.00;3.80;;;;;;;21.10;68.64;99951.72;5089039;28;20030;-29
2022/07/01 01:06:12;;;;;;;7.20;3.70;;;;;;;21.63;66.54;99954.22;5089059;28;20032;-32
2022/07/01 01:08:37;;;;;;;5.53;3.60;;;;;;;21.67;66.26;99947.13;5089022;28;20111;-30
2022/07/01 01:11:04;;;;;;;9.95;3.45;;;;;;;21.33;68.10;99939.19;5070763;28;20093;-30
2022/07/01 01:13:29;;;;;;;6.90;3.70;;;;;;;21.51;67.68;99938.41;5070409;28;20097;-32
2022/07/01 01:15:55;;;;;;;4.57;3.08;;;;;;;21.54;66.48;99945.16;5088872;28;20028;-36
2022/07/01 01:18:20;;;;;;;5.13;3.53;;;;;;;21.34;67.04;99936.19;5088960;28;20039;-29
2022/07/01 01:20:45;;;;;;;6.78;3.80;;;;;;;21.34;66.58;99919.13;5088481;28;20031;-28
2022/07/01 01:23:11;;;;;;;6.38;3.92;;;;;;;21.27;67.09;99920.28;5088667;28;20027;-28
2022/07/01 01:25:36;;;;;;;7.20;3.67;;;;;;;21.37;67.03;99940.22;5088745;28;20032;-32
2022/07/01 01:28:02;;;;;;;8.75;3.80;;;;;;;21.08;67.69;99943.88;5088795;28;20710;-31
2022/07/01 01:30:28;;;;;;;6.55;3.72;;;;;;;20.89;67.68;99941.13;5088589;28;20028;-29
2022/07/01 01:32:54;;;;;;;6.10;3.60;;;;;;;20.89;67.99;99949.28;5088792;28;20461;-30
2022/07/01 01:35:20;;;;;;;6.47;3.53;;;;;;;21.03;67.19;99938.53;5088266;28;20063;-28
2022/07/01 01:37:46;;;;;;;5.45;3.47;;;;;;;21.02;69.00;99939.59;5070083;28;20121;-28
2022/07/01 01:40:13;;;;;;;7.20;3.70;;;;;;;21.12;68.28;99955.75;5086351;28;20050;-32
2022/07/01 01:42:40;;;;;;;8.32;3.80;;;;;;;21.53;66.86;99949.75;5088242;28;20032;-31
2022/07/01 01:45:06;;;;;;;6.35;3.47;;;;;;;21.23;66.10;99945.59;5069784;28;20407;-30
2022/07/01 01:47:31;;;;;;;8.63;3.75;;;;;;;21.09;66.67;99953.63;5069288;28;20028;-32
2022/07/01 01:49:57;;;;;;;4.88;3.28;;;;;;;20.99;67.08;99929.38;5087711;28;20085;-32
2022/07/01 01:52:22;;;;;;;5.03;3.25;;;;;;;21.33;66.56;99944.59;5087834;28;20055;-30
2022/07/01 01:54:48;;;;;;;6.00;3.78;;;;;;;21.39;66.27;99954.28;5087940;28;20020;-29
2022/07/01 01:57:14;;;;;;;6.60;3.55;;;;;;;21.15;66.84;99960.59;5087954;28;20487;-28
2022/07/01 01:59:39;;;;;;;8.73;3.65;;;;;;;20.90;67.60;99953.59;5087421;28;20032;-31
2022/07/01 02:02:05;;;;;;;7.03;3.53;;;;;;;21.00;68.66;99941.81;5087600;28;20525;-31
2022/07/01 02:04:31;;;;;;;10.73;3.85;;;;;;;21.05;67.70;99949.88;5087522;28;20028;-29
2022/07/01 02:06:56;;;;;;;20.27;5.10;;;;;;;20.96;67.05;99925.31;5069056;28;20031;-30
2022/07/01 02:09:22;;;;;;;20.52;4.68;;;;;;;20.99;67.37;99934.78;5087393;28;20024;-38
2022/07/01 02:11:48;;;;;;;9.07;4.40;;;;;;;20.89;67.70;99929.50;5087942;28;20028;-33
2022/07/01 02:14:13;;;;;;;5.47;3.60;;;;;;;20.73;68.30;99951.34;5086252;28;20028;-29
2022/07/01 02:16:39;;;;;;;8.15;3.35;;;;;;;20.66;70.19;99932.75;5087540;28;20028;-35
2022/07/01 02:19:04;;;;;;;5.88;3.83;;;;;;;20.57;68.97;99939.06;5087568;28;20158;-30
2022/07/01 02:21:30;;;;;;;8.15;3.28;;;;;;;20.70;69.47;99946.53;5086831;28;20017;-31
2022/07/01 02:23:55;;;;;;;8.13;3.72;;;;;;;20.55;69.60;99947.47;5088036;28;20074;-28
2022/07/01 02:26:21;;;;;;;6.63;3.72;;;;;;;20.47;71.02;99943.50;5087250;28;20066;-34
2022/07/01 02:28:47;;;;;;;8.52;4.30;;;;;;;20.52;71.64;99952.66;5087602;28;20028;-28
2022/07/01 02:31:12;;;;;;;8.88;4.07;;;;;;;20.33;70.86;99929.03;5087182;28;20032;-29
2022/07/01 02:33:38;;;;;;;9.40;4.13;;;;;;;20.51;71.36;99953.75;5087280;28;20639;-29
2022/07/01 02:36:03;;;;;;;9.02;4.20;;;;;;;20.76;70.35;99939.94;5087197;28;20118;-30
2022/07/01 02:38:29;;;;;;;8.88;3.90;;;;;;;20.83;69.71;99947.72;5087594;28;20039;-35
2022/07/01 02:40:55;;;;;;;8.52;3.90;;;;;;;21.36;68.09;99960.31;5086792;28;20048;-28
2022/07/01 02:43:20;;;;;;;7.13;3.88;;;;;;;21.56;67.03;99961.97;5086870;28;20035;-29
2022/07/01 02:45:46;;;;;;;6.78;4.13;;;;;;;21.38;66.35;99948.06;5086900;28;20028;-29
2022/07/01 02:48:11;;;;;;;6.53;4.90;;;;;;;21.67;66.92;99966.09;5086832;28;20523;-29
2022/07/01 02:50:37;;;;;;;9.00;5.05;;;;;;;21.40;65.90;99950.50;5086800;28;20028;-28
2022/07/01 02:53:03;;;;;;;7.00;4.80;;;;;;;21.35;66.57;99958.69;5086700;28;20024;-28
2022/07/01 02:55:29;;;;;;;8.82;5.13;;;;;;;21.28;68.07;99967.19;5068447;28;20035;-30
2022/07/01 02:57:54;;;;;;;12.05;5.47;;;;;;;21.03;68.29;99976.47;5087075;28;20110;-32
2022/07/01 03:00:21;;;;;;;8.63;5.60;;;;;;;21.01;69.81;99970.53;5068589;28;20034;-29
2022/07/01 03:02:47;;;;;;;7.72;5.68;;;;;;;20.85;70.35;99954.47;5068462;28;20027;-29
2022/07/01 03:05:13;;;;;;;11.10;5.38;;;;;;;20.84;69.61;99961.00;5068307;28;20120;-31
2022/07/01 03:07:39;;;;;;;12.65;5.10;;;;;;;20.88;70.59;99977.47;5086494;28;20078;-29
2022/07/01 03:10:06;;;;;;;9.55;4.95;;;;;;;20.74;70.59;99977.38;5068318;28;20185;-30
2022/07/01 03:12:35;;;;;;;11.15;4.95;;;;;;;20.62;71.33;99958.81;5068941;28;20027;-30
2022/07/01 03:15:02;;;;;;;9.82;5.13;;;;;;;20.96;69.85;99979.53;5086921;28;20031;-28
2022/07/01 03:17:32;;;;;;;7.07;4.95;;;;;;;21.09;68.54;99967.19;5068287;28;20024;-32
2022/07/01 03:19:58;;;;;;;15.55;5.75;;;;;;;20.87;69.64;99981.28;5067858;28;20028;-30
2022/07/01 03:22:29;;;;;;;9.43;5.15;;;;;;;20.55;70.52;99962.91;5068215;28;20487;-30
2022/07/01 03:24:55;;;;;;;10.52;5.50;;;;;;;20.84;69.07;99987.25;5086210;28;20063;-32
2022/07/01 03:27:22;;;;;;;8.25;5.32;;;;;;;20.65;69.73;99976.38;5067645;28;20123;-37
2022/07/01 03:29:47;;;;;;;10.10;5.25;;;;;;;21.10;69.45;99997.81;5086254;28;20119;-30
2022/07/01 03:32:13;;;;;;;10.05;4.75;;;;;;;21.22;68.70;99993.56;5085972;28;20106;-30
2022/07/01 03:34:41;;;;;;;6.45;4.78;;;;;;;20.74;70.39;99996.34;5086456;28;20062;-33
2022/07/01 03:37:07;;;;;;;17.48;5.43;;;;;;;20.80;70.61;99997.91;5067864;28;20028;-30
2022/07/01 03:39:34;;;;;;;84.43;44.70;;;;;;;20.59;71.61;100001.91;5067427;28;20043;-35
2022/07/01 03:42:00;;;;;;;29.27;15.90;;;;;;;20.71;71.06;99999.63;5086132;28;20024;-29
2022/07/01 03:44:25;;;;;;;33.92;18.83;;;;;;;20.84;70.57;99992.69;5086098;28;20051;-32
2022/07/01 03:46:51;;;;;;;21.55;10.82;;;;;;;21.16;69.23;100004.78;5086013;28;20035;-29
2022/07/01 03:49:16;;;;;;;20.92;10.60;;;;;;;21.16;69.31;100007.50;5086386;28;20042;-29
2022/07/01 03:51:42;;;;;;;14.88;7.80;;;;;;;20.92;70.37;100004.81;5086118;28;20117;-31
2022/07/01 03:56:51;;;;;;;10.70;6.53;;;;;;;20.27;73.24;100006.00;5086034;28;20035;-30
2022/07/01 03:59:17;;;;;;;21.80;12.13;;;;;;;20.47;73.00;100013.94;5085671;28;20024;-29
2022/07/01 04:01:42;;;;;;;17.05;6.88;;;;;;;20.57;72.53;99993.22;5085413;28;20469;-28
2022/07/01 04:04:08;;;;;;;13.45;5.90;;;;;;;20.88;71.38;99999.13;5067635;28;20028;-30
2022/07/01 04:06:34;;;;;;;10.88;5.70;;;;;;;21.05;70.53;100007.63;5085992;28;20054;-30
2022/07/01 04:08:59;;;;;;;9.25;6.05;;;;;;;20.86;71.82;99998.63;5086127;28;20514;-28
2022/07/01 04:11:25;;;;;;;14.30;6.70;;;;;;;20.97;71.79;99996.63;5085933;28;20793;-28
2022/07/01 04:13:50;;;;;;;9.73;5.60;;;;;;;21.08;71.79;100008.94;5085799;28;20028;-28
2022/07/01 04:16:20;;;;;;;11.15;5.93;;;;;;;21.33;71.34;100013.25;5085468;28;20032;-30
2022/07/01 04:18:46;;;;;;;8.82;6.20;;;;;;;21.41;71.25;100017.19;5085995;28;20036;-29
2022/07/01 04:23:56;;;;;;;8.32;5.40;;;;;;;21.10;72.20;100001.31;5089143;28;20027;-28
2022/07/01 04:26:23;;;;;;;10.68;6.70;;;;;;;21.02;72.55;99996.53;5089865;28;20103;-30
2022/07/01 04:28:52;;;;;;;12.90;7.15;;;;;;;21.03;72.60;100000.88;5089960;28;20055;-32
2022/07/01 04:31:18;;;;;;;9.30;6.28;;;;;;;21.20;72.28;100008.53;5071276;28;20515;-30
2022/07/01 04:33:44;;;;;;;10.80;6.47;;;;;;;21.49;71.50;100016.56;5089801;28;20035;-36
2022/07/01 04:36:10;;;;;;;13.15;6.95;;;;;;;21.62;70.52;100001.47;5071128;28;20035;-31
2022/07/01 04:38:36;;;;;;;9.63;6.05;;;;;;;21.62;71.52;100018.56;5089452;28;20035;-37
2022/07/01 04:43:45;;;;;;;8.52;5.95;;;;;;;21.80;70.71;100022.38;5089278;28;20034;-31
2022/07/01 04:46:11;;;;;;;7.50;5.70;;;;;;;22.19;68.81;100025.81;5070787;28;20032;-33
2022/07/01 04:48:36;;;;;;;8.38;5.63;;;;;;;22.00;69.91;100026.66;5089362;28;20070;-32
2022/07/01 04:51:02;;;;;;;13.55;6.20;;;;;;;22.05;69.54;100031.22;5088991;28;20085;-33
2022/07/01 04:53:27;;;;;;;11.82;5.68;;;;;;;22.18;68.65;100013.34;5070295;28;20028;-30
2022/07/01 04:55:52;;;;;;;10.60;6.20;;;;;;;22.34;68.43;100013.94;5088960;28;20464;-30
2022/07/01 04:58:18;;;;;;;7.80;5.40;;;;;;;;;;5089092;28;20031;-30
2022/07/01 05:00:43;;;;;;;8.00;5.90;;;;;;;22.55;69.16;100007.00;5089368;28;20028;-31
2022/07/01 05:03:09;;;;;;;12.38;6.90;;;;;;;22.62;69.55;100012.88;5088854;28;20160;-30
2022/07/01 05:05:34;;;;;;;9.93;6.90;;;;;;;22.49;68.94;99989.19;5088721;28;20111;-30
2022/07/01 05:07:59;;;;;;;10.02;6.85;;;;;;;22.42;69.39;99992.31;5089079;28;20030;-31
2022/07/01 05:10:25;;;;;;;12.10;7.00;;;;;;;22.72;69.87;100011.88;5088644;28;20111;-30
2022/07/01 05:12:50;;;;;;;12.20;7.47;;;;;;;22.86;68.65;100014.56;5088628;28;20110;-31
2022/07/01 05:15:16;;;;;;;10.18;7.15;;;;;;;22.93;68.79;99990.50;5088886;28;20123;-34
2022/07/01 05:23:09;;;;;;;12.63;7.88;;;;;;;23.35;66.95;100020.41;5088548;28;20778;-31
2022/07/01 05:25:35;;;;;;;11.20;7.70;;;;;;;23.26;67.63;100015.69;5088299;28;20028;-30
2022/07/01 05:28:00;;;;;;;10.85;8.18;;;;;;;23.16;68.40;100015.09;5084693;28;20020;-35
2022/07/01 05:30:26;;;;;;;14.10;8.07;;;;;;;23.04;69.76;99996.56;5079129;28;20529;-31
2022/07/01 05:32:51;;;;;;;10.43;8.05;;;;;;;23.20;69.14;100013.38;5075675;28;20045;-30
2022/07/01 05:35:17;;;;;;;12.00;8.20;;;;;;;23.39;69.44;100013.25;5076791;28;20103;-34
2022/07/01 05:37:42;;;;;;;14.98;8.60;;;;;;;23.49;69.00;100026.63;5074599;28;20023;-34
2022/07/01 05:40:08;;;;;;;10.45;7.95;;;;;;;23.64;69.96;100020.84;5070289;28;20048;-35
2022/07/01 05:42:34;;;;;;;12.50;9.30;;;;;;;23.71;68.17;100025.88;5049892;28;20113;-32
2022/07/01 05:45:00;;;;;;;11.07;8.18;;;;;;;23.88;69.04;100021.69;5067847;28;20028;-31
2022/07/01 05:47:25;;;;;;;11.40;7.25;;;;;;;24.15;67.19;100018.84;5067710;28;20036;-31
2022/07/01 05:49:50;;;;;;;12.40;6.82;;;;;;;24.22;65.91;100012.97;5067722;28;20048;-31
2022/07/01 05:52:16;;;;;;;8.05;5.72;;;;;;;24.06;64.21;100018.78;5067804;28;20025;-33
2022/07/01 05:54:41;;;;;;;9.15;6.68;;;;;;;24.21;65.58;100030.41;5068004;28;20044;-31
2022/07/01 05:57:07;;;;;;;6.45;5.38;;;;;;;24.42;64.43;100028.78;5067861;28;20096;-31
2022/07/01 05:59:32;;;;;;;9.25;5.95;;;;;;;24.12;64.62;100002.31;5067760;28;20491;-31
2022/07/01 06:01:58;;;;;;;8.73;6.00;;;;;;;24.29;64.27;100001.59;5067610;28;20536;-32
2022/07/01 06:04:24;;;;;;;9.95;6.57;;;;;;;24.46;63.07;100013.41;5049472;28;20544;-30
2022/07/01 06:06:49;;;;;;;10.30;6.45;;;;;;;24.67;63.71;100023.81;5067416;28;20032;-32
2022/07/01 06:09:14;;;;;;;10.23;5.90;;;;;;;24.93;60.78;100023.06;5067563;28;20554;-32
2022/07/01 06:11:40;;;;;;;7.53;5.07;;;;;;;24.81;62.04;100023.69;5067515;28;20035;-36
2022/07/01 06:14:05;;;;;;;8.60;6.00;;;;;;;24.70;61.51;100012.25;5067588;28;20025;-31
2022/07/01 06:16:31;;;;;;;9.48;5.55;;;;;;;24.91;61.42;100028.03;5067356;28;20020;-31
2022/07/01 06:18:56;;;;;;;10.90;5.45;;;;;;;24.90;61.42;100007.34;5067088;28;20025;-30
2022/07/01 06:21:22;;;;;;;10.65;5.65;;;;;;;25.25;60.63;100017.28;5066873;28;20055;-31
2022/07/01 06:23:47;;;;;;;8.80;5.88;;;;;;;25.37;58.79;100018.56;5067058;28;20028;-32
2022/07/01 06:26:13;;;;;;;9.70;5.55;;;;;;;25.31;59.00;100008.91;5049141;28;20024;-32
2022/07/01 06:28:38;;;;;;;8.98;5.20;;;;;;;25.38;58.30;99998.34;5067011;28;20040;-36
2022/07/01 06:31:04;;;;;;;9.82;5.15;;;;;;;25.57;58.00;100025.34;5067401;28;20525;-35
2022/07/01 06:33:30;;;;;;;6.28;4.63;;;;;;;25.68;57.61;100021.16;5066605;28;20032;-33
2022/07/01 06:35:56;;;;;;;11.43;5.63;;;;;;;25.85;57.53;100029.34;5066610;28;20017;-31
2022/07/01 06:38:23;;;;;;;6.90;4.82;;;;;;;25.85;58.05;100015.69;5067183;28;20538;-30
2022/07/01 06:41:26;;;;;;;7.68;5.03;;;;;;;26.23;57.10;100025.13;5048295;28;20084;-31
2022/07/01 06:43:34;;;;;;;7.43;5.13;;;;;;;26.16;56.33;100013.91;5066247;28;20129;-31
2022/07/01 06:46:00;;;;;;;8.25;4.75;;;;;;;26.31;57.16;100021.59;5047602;28;20032;-33
2022/07/01 06:48:25;;;;;;;7.57;5.25;;;;;;;26.31;55.66;100018.84;5048470;28;20599;-32
2022/07/01 06:50:51;;;;;;;7.25;5.13;;;;;;;26.41;55.98;100026.69;5066602;28;20060;-33
2022/07/01 06:53:16;;;;;;;9.63;5.00;;;;;;;26.64;55.63;100026.50;5066783;28;20047;-30
2022/07/01 06:55:42;;;;;;;8.80;6.05;;;;;;;26.70;56.36;100027.13;5048405;28;20085;-34
2022/07/01 06:58:07;;;;;;;8.70;5.60;;;;;;;26.74;55.45;100009.72;5066845;28;20017;-28
2022/07/01 07:00:33;;;;;;;7.55;4.65;;;;;;;26.82;54.85;100006.13;5066615;28;20036;-30
2022/07/01 07:02:58;;;;;;;9.23;6.40;;;;;;;26.97;53.01;100017.66;5048698;28;20041;-28
2022/07/01 07:05:24;;;;;;;10.00;4.97;;;;;;;27.00;54.45;100025.22;5066355;28;20062;-32
2022/07/01 07:07:49;;;;;;;7.57;4.68;;;;;;;27.22;52.98;100016.72;5066511;28;20036;-35
2022/07/01 07:10:15;;;;;;;9.50;4.93;;;;;;;27.41;52.28;100021.75;5066356;28;20043;-33
2022/07/01 07:12:40;;;;;;;7.53;5.30;;;;;;;27.63;53.29;100019.84;5066211;28;20025;-29
2022/07/01 07:15:06;;;;;;;10.10;4.72;;;;;;;27.64;51.65;100026.91;5066590;28;20444;-29
2022/07/01 07:17:31;;;;;;;7.30;4.65;;;;;;;27.72;50.88;100017.00;5065652;28;20033;-28
2022/07/01 07:19:57;;;;;;;5.60;4.05;;;;;;;27.93;48.56;100025.22;5066162;28;20029;-36
2022/07/01 07:22:22;;;;;;;8.02;4.40;;;;;;;27.85;49.97;100018.69;5066010;28;20027;-28
2022/07/01 07:24:48;;;;;;;8.50;3.97;;;;;;;28.04;50.69;100002.56;5066083;28;20032;-31
2022/07/01 07:27:14;;;;;;;8.02;4.50;;;;;;;28.13;50.43;100007.16;5066078;28;20031;-28
2022/07/01 07:29:39;;;;;;;7.30;4.43;;;;;;;28.30;49.97;100028.09;5065872;28;20028;-31
2022/07/01 07:32:05;;;;;;;8.68;4.57;;;;;;;28.41;49.39;100008.13;5066058;28;20028;-30
2022/07/01 07:34:30;;;;;;;7.00;4.30;;;;;;;28.42;48.21;100007.00;5065672;28;20460;-32
2022/07/01 07:36:56;;;;;;;6.97;4.28;;;;;;;28.54;47.64;100005.41;5065993;28;20023;-28
2022/07/01 07:39:21;;;;;;;7.03;4.45;;;;;;;28.51;47.50;99993.19;5065710;28;20043;-29
2022/07/01 07:41:47;;;;;;;6.65;4.32;;;;;;;28.69;47.23;99996.53;5065304;28;20052;-28
2022/07/01 07:44:12;;;;;;;11.93;4.55;;;;;;;28.93;46.67;100000.41;5065871;28;20021;-29
2022/07/01 07:46:38;;;;;;;7.07;4.07;;;;;;;29.01;46.89;99999.47;5065549;28;20039;-28
2022/07/01 07:49:03;;;;;;;5.35;4.05;;;;;;;28.90;47.26;99990.91;5065974;28;20023;-30
2022/07/01 07:51:29;;;;;;;8.85;4.05;;;;;;;28.92;46.44;100004.28;5065598;28;20052;-28
2022/07/01 07:53:54;;;;;;;6.57;4.50;;;;;;;29.11;48.12;99995.50;5065938;28;20035;-34
2022/07/01 07:56:20;;;;;;;8.52;4.22;;;;;;;29.29;46.53;100001.53;5066498;28;20032;-29
2022/07/01 07:58:46;;;;;;;9.27;4.50;;;;;;;29.52;46.60;100010.84;5069990;28;20032;-33
2022/07/01 08:01:11;;;;;;;8.25;4.22;;;;;;;29.49;46.42;100002.50;5067944;28;20020;-35
2022/07/01 08:03:37;;;;;;;9.30;4.90;;;;;;;29.58;46.82;99987.47;5069845;28;20385;-30
2022/07/01 08:06:03;;;;;;;8.60;4.30;;;;;;;29.39;47.32;99995.56;5069773;28;20028;-28
2022/07/01 08:08:28;;;;;;;7.72;4.07;;;;;;;29.67;46.84;100011.25;5069712;28;20024;-33
2022/07/01 08:10:53;;;;;;;8.00;3.75;;;;;;;29.77;43.78;100005.28;5069853;28;20479;-27
2022/07/01 08:13:19;;;;;;;7.93;4.05;;;;;;;30.00;44.02;100014.59;5069496;28;20036;-31
2022/07/01 08:15:45;;;;;;;5.70;4.10;;;;;;;29.90;45.28;100008.81;5069464;28;20491;-28
2022/07/01 08:18:10;;;;;;;8.30;4.40;;;;;;;29.94;44.93;99988.50;5068374;28;20071;-28
2022/07/01 08:20:36;;;;;;;7.28;4.28;;;;;;;30.14;44.33;100007.84;5069506;28;20089;-35
2022/07/01 08:23:01;;;;;;;9.48;4.20;;;;;;;30.10;41.68;99995.97;5069426;28;20500;-33
2022/07/01 08:25:27;;;;;;;7.80;4.28;;;;;;;30.33;43.28;99997.00;5069461;28;20061;-28
2022/07/01 08:27:52;;;;;;;7.72;3.70;;;;;;;30.79;43.05;100005.63;5051256;28;20086;-28
2022/07/01 08:30:18;;;;;;;8.73;3.53;;;;;;;30.95;40.10;100004.81;5069067;28;20025;-33
2022/07/01 08:32:44;;;;;;;6.80;4.03;;;;;;;30.95;41.84;100008.34;5069577;28;20036;-29
2022/07/01 08:35:09;;;;;;;7.47;3.38;;;;;;;31.07;39.60;100004.69;5069241;28;20108;-30
2022/07/01 08:37:35;;;;;;;7.78;3.67;;;;;;;30.94;39.52;99992.22;5069052;28;20123;-33
2022/07/01 08:40:01;;;;;;;6.63;3.80;;;;;;;30.98;41.83;99990.34;5068630;28;20128;-29
2022/07/01 08:42:26;;;;;;;5.80;3.70;;;;;;;31.69;41.04;99995.78;5069341;28;20416;-30
2022/07/01 08:44:52;;;;;;;4.95;3.25;;;;;;;31.72;38.00;99984.03;5068877;28;20028;-33
2022/07/01 08:47:17;;;;;;;6.35;3.72;;;;;;;31.53;39.95;99996.66;5068919;28;20028;-30
2022/07/01 08:49:43;;;;;;;6.45;4.13;;;;;;;31.62;39.05;99996.44;5068547;28;20487;-28
2022/07/01 08:52:11;;;;;;;5.75;3.67;;;;;;;31.82;39.51;99995.28;5068649;28;20055;-28
2022/07/01 08:54:38;;;;;;;6.18;3.17;;;;;;;31.85;36.66;99999.25;5067289;28;20071;-32
2022/07/01 08:57:04;;;;;;;6.18;3.58;;;;;;;31.64;37.43;100010.66;5050490;28;20469;-33
2022/07/01 08:59:30;;;;;;;7.47;3.53;;;;;;;31.87;39.58;99985.91;5066823;28;20036;-30
2022/07/01 09:02:04;;;;;;;6.28;3.25;;;;;;;32.24;39.01;99996.44;5050559;28;20024;-28
2022/07/01 09:04:32;;;;;;;5.88;3.60;;;;;;;32.25;36.17;99994.50;5050779;28;20039;-28
2022/07/01 09:07:06;;;;;;;5.95;3.40;;;;;;;32.28;39.23;99975.22;5050586;28;20128;-36
2022/07/01 09:09:35;;;;;;;4.72;3.35;;;;;;;32.30;36.54;99980.38;5049559;28;20032;-29
2022/07/01 09:12:01;;;;;;;8.90;2.80;;;;;;;32.47;36.08;99990.94;5050027;28;20036;-31
2022/07/01 09:14:31;;;;;;;10.07;3.55;;;;;;;32.75;35.83;99993.38;5068502;28;20028;-30
2022/07/01 09:16:59;;;;;;;7.80;3.42;;;;;;;33.18;35.11;99996.81;5068389;28;20957;-34
2022/07/01 09:19:26;;;;;;;6.30;3.40;;;;;;;33.30;35.65;99989.44;5066821;28;20090;-33
2022/07/01 09:21:56;;;;;;;5.43;3.67;;;;;;;33.50;35.76;99988.13;5068232;28;20079;-28
2022/07/01 09:24:23;;;;;;;6.40;3.22;;;;;;;33.39;33.82;100009.31;5066514;28;20450;-32
2022/07/01 09:27:13;;;;;;;8.32;3.60;;;;;;;33.35;34.83;100000.19;5049857;28;20033;-29
2022/07/01 09:29:52;;;;;;;5.93;3.40;;;;;;;33.65;35.45;99996.59;5068002;28;20036;-31
2022/07/01 09:32:20;;;;;;;9.63;3.35;;;;;;;33.49;34.33;99978.25;5068034;28;20778;-29
2022/07/01 09:34:53;;;;;;;6.53;3.10;;;;;;;33.72;34.64;99996.69;5049623;28;20028;-31
2022/07/01 09:37:24;;;;;;;6.38;3.28;;;;;;;33.58;33.92;99989.00;5068017;28;20032;-33
2022/07/01 09:39:54;;;;;;;6.70;3.33;;;;;;;33.77;33.24;99982.53;5066305;28;20035;-30
2022/07/01 09:42:21;;;;;;;8.57;3.50;;;;;;;33.66;35.71;99989.91;5066569;28;20036;-30
2022/07/01 09:45:07;;;;;;;5.75;3.28;;;;;;;33.72;32.74;99980.13;5066569;28;20028;-28
2022/07/01 09:47:34;;;;;;;5.57;3.47;;;;;;;33.72;33.71;99972.59;5067267;28;20064;-32
2022/07/01 09:50:04;;;;;;;7.25;3.45;;;;;;;33.75;33.72;99973.81;5066898;28;20060;-33
2022/07/01 09:52:29;;;;;;;5.68;3.30;;;;;;;33.84;35.38;99977.09;5066463;28;20500;-29
2022/07/01 09:54:55;;;;;;;7.22;3.30;;;;;;;33.42;35.35;99969.84;5068050;28;20108;-31
2022/07/01 09:57:22;;;;;;;7.25;3.53;;;;;;;33.54;34.94;99950.25;5049380;28;20020;-36
2022/07/01 09:59:49;;;;;;;5.50;3.10;;;;;;;34.17;34.36;99962.41;5066235;28;20040;-29
2022/07/01 10:02:17;;;;;;;4.75;3.30;;;;;;;34.11;32.42;99974.19;5065905;28;20105;-32
2022/07/01 10:04:58;;;;;;;8.20;3.63;;;;;;;34.20;31.99;99971.91;5049425;28;20123;-30
2022/07/01 10:07:58;;;;;;;8.27;5.45;;;;;;;34.98;31.78;99970.91;5049360;28;20028;-30
2022/07/01 10:10:42;;;;;;;6.85;3.35;;;;;;;34.96;31.75;99976.06;5036452;28;20048;-32
2022/07/01 10:13:11;;;;;;;6.40;3.20;;;;;;;34.92;32.61;99961.38;5049360;28;20024;-34
2022/07/01 10:15:40;;;;;;;4.95;3.38;;;;;;;34.74;31.25;99973.16;5032882;28;20043;-29
2022/07/01 10:18:18;;;;;;;5.28;3.30;;;;;;;34.39;29.31;99973.66;5067006;28;20424;-29
2022/07/01 10:20:46;;;;;;;4.97;3.13;;;;;;;34.21;31.37;99967.97;5047671;28;20499;-30
2022/07/01 10:23:12;;;;;;;9.45;3.50;;;;;;;34.00;29.89;99963.00;5049132;28;20028;-33
2022/07/01 10:25:43;;;;;;;7.40;3.60;;;;;;;34.00;28.44;99963.00;5067094;28;20554;-28
2022/07/01 10:28:25;;;;;;;5.03;3.22;;;;;;;33.73;30.47;99959.56;5049037;28;20029;-28
2022/07/01 10:31:09;;;;;;;6.90;3.47;;;;;;;33.91;31.08;99962.53;5048955;28;20086;-29
2022/07/01 10:33:41;;;;;;;4.60;3.13;;;;;;;34.05;29.31;99964.63;5066728;28;20024;-34
2022/07/01 10:36:19;;;;;;;7.30;3.28;;;;;;;34.45;27.64;99969.38;5066844;28;20024;-30
2022/07/01 10:39:10;;;;;;;3.50;3.05;;;;;;;35.35;27.26;99967.97;5048877;28;20031;-34
2022/07/01 10:41:35;;;;;;;5.78;3.10;;;;;;;35.69;27.70;99953.84;5047711;28;20098;-29
2022/07/01 10:44:07;;;;;;;6.50;3.30;;;;;;;36.17;25.95;99944.44;5066164;28;20063;-29
2022/07/01 10:46:46;;;;;;;8.48;3.47;;;;;;;36.29;27.27;99941.25;5065032;28;20032;-32
2022/07/01 10:49:19;;;;;;;7.15;3.30;;;;;;;35.67;27.25;99944.31;5048545;28;20035;-30
2022/07/01 10:51:49;;;;;;;7.13;3.60;;;;;;;36.16;28.01;99937.28;5066205;28;20037;-35
2022/07/01 10:54:49;;;;;;;5.32;3.33;;;;;;;36.70;28.37;99938.06;5047791;28;20050;-37
2022/07/01 10:57:15;;;;;;;7.88;3.55;;;;;;;35.88;28.77;99927.72;5015909;28;20041;-36
2022/07/01 10:59:40;;;;;;;7.22;3.63;;;;;;;35.34;30.45;99910.13;5065937;28;20069;-33
2022/07/01 11:02:30;;;;;;;7.15;3.30;;;;;;;35.29;31.04;99913.28;5066286;28;20071;-33
2022/07/01 11:05:01;;;;;;;5.70;3.40;;;;;;;34.98;31.18;99915.50;5064091;28;21261;-29
2022/07/01 11:07:31;;;;;;;4.57;3.20;;;;;;;34.99;29.40;99908.78;5064548;28;20028;-29
2022/07/01 11:09:58;;;;;;;13.57;5.28;;;;;;;35.36;31.19;99918.84;5064553;28;20412;-36
2022/07/01 11:12:24;;;;;;;5.50;3.65;;;;;;;35.13;31.17;99914.41;5047919;28;20554;-36
2022/07/01 11:14:50;;;;;;;6.15;3.95;;;;;;;35.02;30.21;99916.31;5065706;28;20032;-30
2022/07/01 11:17:16;;;;;;;7.32;3.53;;;;;;;35.13;30.40;99906.09;5064635;28;20032;-36
2022/07/01 11:20:08;;;;;;;8.95;5.35;;;;;;;35.06;31.21;99917.13;5065901;28;20032;-29
2022/07/01 11:22:35;;;;;;;6.30;2.90;;;;;;;34.81;28.87;99917.78;5077563;28;20098;-30
2022/07/01 11:25:10;;;;;;;9.60;6.10;;;;;;;34.70;29.37;99910.63;5067258;28;20032;-34
2022/07/01 11:27:37;;;;;;;18.90;12.05;;;;;;;34.31;30.56;99911.91;5067709;28;20047;-35
2022/07/01 11:30:14;;;;;;;12.40;7.05;;;;;;;34.29;31.34;99908.75;5067927;28;20564;-28
2022/07/01 11:32:42;;;;;;;13.02;6.97;;;;;;;34.24;30.61;99897.22;5085628;28;20498;-30
2022/07/01 11:41:00;;;;;;;8.70;3.60;;;;;;;36.22;27.96;99904.38;5085353;28;20051;-29
2022/07/01 11:43:30;;;;;;;10.18;3.78;;;;;;;36.45;27.92;99909.50;5066980;28;20044;-31
2022/07/01 11:45:59;;;;;;;7.45;4.00;;;;;;;37.17;26.83;99910.94;5067554;28;20063;-31
2022/07/01 11:48:29;;;;;;;6.75;3.60;;;;;;;37.13;25.46;99907.38;5063525;28;20094;-30